Time;durP1;ratioP1;P1;durP2;ratioP2;P2;SDS_P1;SDS_P2;PMS_P1;PMS_P2;Temp;Humidity;BMP_temperature;BMP_pressure;BME280_temperature;BME280_humidity;BME280_pressure;Samples;Min_cycle;Max_cycle;Signal;HPM_P1;HPM_P2
2021/09/30 00:02:26;;;;;;;14.70;9.30;;;;;;;5.52;100.00;103345.37;2578281;55;20154;-71
2021/09/30 00:04:54;;;;;;;15.95;9.43;;;;;;;5.44;100.00;103342.81;2583558;55;20120;-71
2021/09/30 00:07:22;;;;;;;15.73;9.63;;;;;;;5.42;100.00;103345.50;2583591;55;20111;-69
2021/09/30 00:09:50;;;;;;;15.23;9.38;;;;;;;5.38;100.00;103342.91;2583489;55;20106;-71
2021/09/30 00:12:21;;;;;;;17.48;9.73;;;;;;;5.36;100.00;103340.25;2583483;55;20112;-71
2021/09/30 00:14:53;;;;;;;18.60;11.77;;;;;;;5.40;100.00;103341.97;2583655;55;20134;-68
2021/09/30 00:34:08;;;;;;;23.60;15.00;;;;;;;5.19;100.00;103339.56;2584443;55;20132;-68
2021/09/30 00:42:09;;;;;;;19.25;13.18;;;;;;;5.10;100.00;103351.97;2584023;55;20116;-70
2021/09/30 00:47:41;;;;;;;19.25;12.15;;;;;;;5.12;100.00;103346.69;2584315;55;20653;-70
2021/09/30 00:50:23;;;;;;;18.23;11.50;;;;;;;5.12;100.00;103352.88;2584429;55;20121;-68
2021/09/30 00:53:03;;;;;;;18.85;11.27;;;;;;;5.11;100.00;103347.56;2579072;55;20117;-70
2021/09/30 00:55:54;;;;;;;18.95;11.77;;;;;;;5.10;100.00;103349.34;2584208;55;20135;-70
2021/09/30 01:52:36;;;;;;;15.98;10.10;;;;;;;4.88;100.00;103322.22;2584127;55;20127;-68
2021/09/30 02:20:34;;;;;;;12.95;9.45;;;;;;;4.53;100.00;103313.72;2583847;55;20120;-70
2021/09/30 02:26:11;;;;;;;15.07;10.18;;;;;;;4.48;100.00;103323.44;2592906;47;20128;-70
2021/09/30 02:28:54;;;;;;;12.52;9.13;;;;;;;4.38;100.00;103316.44;2587827;55;20109;-68
2021/09/30 02:58:09;;;;;;;14.38;10.35;;;;;;;4.15;100.00;103314.84;2587698;55;20127;-67
2021/09/30 02:59:35;;;;;;;15.63;9.57;;;;;;;4.17;100.00;103323.66;2587842;55;20673;-68
2021/09/30 03:02:04;;;;;;;;;;;;;;;4.35;100.00;103320.00;2588218;55;20125;-68
2021/09/30 03:04:34;;;;;;;16.15;9.93;;;;;;;4.11;100.00;103321.91;2587645;55;19992;-68
2021/09/30 03:07:02;;;;;;;31.95;11.48;;;;;;;4.06;100.00;103322.84;2587665;55;20127;-69
2021/09/30 03:09:38;;;;;;;13.90;9.52;;;;;;;4.02;100.00;103314.03;2587630;55;20136;-69
2021/09/30 03:12:16;;;;;;;17.02;11.18;;;;;;;4.06;100.00;103320.19;2587651;55;20546;-69
2021/09/30 03:14:58;;;;;;;15.93;10.75;;;;;;;4.06;100.00;103317.56;2587674;55;20139;-69
2021/09/30 03:17:31;;;;;;;17.67;10.60;;;;;;;4.07;100.00;103321.94;2582408;55;20112;-68
2021/09/30 03:20:04;;;;;;;17.67;9.68;;;;;;;4.07;100.00;103319.31;2587734;55;20127;-69
2021/09/30 03:22:34;;;;;;;16.20;10.90;;;;;;;4.01;100.00;103323.75;2587748;55;20168;-67
2021/09/30 03:25:01;;;;;;;16.15;9.57;;;;;;;4.00;100.00;103308.75;2587499;55;20503;-69
2021/09/30 03:27:30;;;;;;;17.25;10.48;;;;;;;4.01;100.00;103310.53;2587668;55;20156;-70
2021/09/30 03:29:59;;;;;;;18.45;10.57;;;;;;;4.05;100.00;103314.03;2587806;55;20109;-69
2021/09/30 03:32:27;;;;;;;18.77;11.43;;;;;;;4.06;100.00;103314.91;2587582;55;20132;-68
2021/09/30 03:34:55;;;;;;;22.15;10.98;;;;;;;4.08;100.00;103311.37;2587557;55;20149;-69
2021/09/30 03:37:24;;;;;;;22.23;11.85;;;;;;;4.12;100.00;103313.09;2583992;55;20118;-67
2021/09/30 03:39:52;;;;;;;22.98;12.32;;;;;;;4.16;100.00;103317.50;2584089;55;20109;-70
2021/09/30 03:42:20;;;;;;;23.48;12.43;;;;;;;4.17;100.00;103307.78;2584035;55;20529;-70
2021/09/30 03:44:49;;;;;;;25.95;12.85;;;;;;;4.17;100.00;103307.78;2584093;55;20113;-67
2021/09/30 03:47:18;;;;;;;26.83;13.35;;;;;;;4.18;100.00;103304.25;2583919;55;20219;-68
2021/09/30 03:49:49;;;;;;;22.65;12.25;;;;;;;4.17;100.00;103305.16;2583930;55;20164;-69
2021/09/30 03:52:22;;;;;;;32.85;13.77;;;;;;;4.19;100.00;103303.38;2583978;55;20109;-70
2021/09/30 03:55:02;;;;;;;24.12;12.85;;;;;;;4.17;100.00;103306.03;2584123;55;20139;-67
2021/09/30 03:57:39;;;;;;;25.33;13.82;;;;;;;4.17;100.00;103292.81;2584121;55;20131;-70
2021/09/30 04:00:06;;;;;;;28.50;16.30;;;;;;;4.20;100.00;103302.47;2584031;55;20113;-67
2021/09/30 04:02:43;;;;;;;41.03;23.85;;;;;;;4.22;100.00;103295.44;2584112;55;20105;-67
2021/09/30 04:05:12;;;;;;;46.25;22.77;;;;;;;4.21;100.00;103301.63;2583955;55;20150;-67
2021/09/30 04:07:40;;;;;;;31.77;15.15;;;;;;;4.25;100.00;103295.41;2584092;55;20097;-70
2021/09/30 04:10:08;;;;;;;30.00;14.15;;;;;;;4.24;100.00;103296.28;2584126;55;20598;-70
2021/09/30 04:12:37;;;;;;;27.37;15.43;;;;;;;4.28;100.00;103305.09;2583983;55;20160;-67
2021/09/30 04:15:06;;;;;;;31.73;15.75;;;;;;;4.29;100.00;103291.84;2583916;55;20129;-68
2021/09/30 04:17:34;;;;;;;31.17;15.48;;;;;;;4.29;100.00;103296.25;2584035;55;20132;-70
2021/09/30 04:20:05;;;;;;;32.15;14.98;;;;;;;4.28;100.00;103305.94;2584082;55;20128;-68
2021/09/30 04:22:32;;;;;;;25.25;13.95;;;;;;;4.28;100.00;103310.38;2584198;55;20638;-69
2021/09/30 04:25:00;;;;;;;30.90;15.38;;;;;;;4.24;100.00;103301.59;2583879;55;20113;-67
2021/09/30 04:27:29;;;;;;;27.80;14.13;;;;;;;4.22;100.00;103299.84;2584023;55;20493;-67
2021/09/30 04:29:56;;;;;;;34.08;15.23;;;;;;;4.23;100.00;103299.84;2583794;55;20121;-70
2021/09/30 04:32:25;;;;;;;30.98;16.33;;;;;;;4.26;100.00;103302.44;2583784;55;20124;-70
2021/09/30 04:34:53;;;;;;;31.98;14.75;;;;;;;4.27;100.00;103303.34;2583819;55;20117;-67
2021/09/30 04:37:25;;;;;;;38.25;14.98;;;;;;;4.30;100.00;103304.16;2583925;55;20104;-70
2021/09/30 04:39:53;;;;;;;27.87;14.93;;;;;;;4.32;100.00;103307.69;2584020;55;20174;-67
2021/09/30 04:42:21;;;;;;;27.95;13.98;;;;;;;4.36;100.00;103308.56;2584055;55;20113;-67
2021/09/30 04:44:49;;;;;;;25.67;13.85;;;;;;;4.39;100.00;103305.00;2583848;55;20160;-67
2021/09/30 04:47:17;;;;;;;29.40;14.30;;;;;;;4.43;100.00;103309.38;2583559;55;20106;-67
2021/09/30 04:49:45;;;;;;;26.70;13.73;;;;;;;4.45;100.00;103319.03;2583777;55;20168;-69
2021/09/30 04:52:13;;;;;;;25.27;13.32;;;;;;;4.48;100.00;103301.41;2583788;55;20127;-67
2021/09/30 04:54:42;;;;;;;24.10;13.90;;;;;;;4.52;100.00;103306.66;2583863;55;20121;-69
2021/09/30 04:57:10;;;;;;;26.37;13.38;;;;;;;4.57;100.00;103306.62;2583842;55;20138;-67
2021/09/30 04:59:39;;;;;;;24.40;14.85;;;;;;;4.62;100.00;103301.31;2583937;55;20168;-67
2021/09/30 05:02:09;;;;;;;27.50;12.60;;;;;;;4.67;100.00;103303.00;2578141;55;20117;-67
2021/09/30 05:04:36;;;;;;;23.65;11.77;;;;;;;4.72;100.00;103298.53;2583684;55;20156;-70
2021/09/30 05:07:04;;;;;;;24.40;11.50;;;;;;;4.74;100.00;103294.09;2583626;55;20119;-69
2021/09/30 05:09:33;;;;;;;21.95;11.98;;;;;;;4.80;100.00;103302.91;2583648;55;20631;-67
2021/09/30 05:12:06;;;;;;;22.37;11.52;;;;;;;4.82;100.00;103296.72;2583493;55;20629;-68
2021/09/30 05:14:34;;;;;;;;;;;;;;;5.05;100.00;103294.69;2583975;55;20137;-70
2021/09/30 05:17:01;;;;;;;18.85;9.98;;;;;;;4.93;100.00;103303.66;2581401;55;19988;-70
2021/09/30 05:19:29;;;;;;;18.25;10.48;;;;;;;4.94;100.00;103294.84;2582724;55;20117;-67
2021/09/30 05:22:00;;;;;;;17.50;10.25;;;;;;;4.95;100.00;103297.44;2583522;55;20121;-67
2021/09/30 05:24:28;;;;;;;18.15;9.88;;;;;;;4.99;100.00;103293.00;2582510;55;20117;-67
2021/09/30 05:26:55;;;;;;;19.37;9.90;;;;;;;5.05;100.00;103295.59;2582638;55;20101;-67
2021/09/30 05:29:25;;;;;;;16.00;10.00;;;;;;;5.10;100.00;103291.09;2583554;55;20117;-70
2021/09/30 05:31:55;;;;;;;20.90;9.67;;;;;;;5.14;100.00;103290.19;2580422;55;20615;-67
2021/09/30 05:34:24;;;;;;;18.42;9.35;;;;;;;5.17;100.00;103296.34;2580599;55;20132;-70
2021/09/30 05:36:52;;;;;;;17.20;9.00;;;;;;;5.21;100.00;103288.34;2579459;55;20123;-67
2021/09/30 05:39:21;;;;;;;21.80;10.23;;;;;;;5.25;100.00;103291.84;2580454;55;20509;-68
2021/09/30 05:41:50;;;;;;;21.92;10.02;;;;;;;5.28;100.00;103290.06;2580977;55;20231;-69
2021/09/30 05:44:22;;;;;;;17.67;9.95;;;;;;;5.33;100.00;103294.41;2580271;55;20622;-66
2021/09/30 05:46:55;;;;;;;17.80;9.60;;;;;;;5.34;100.00;103294.41;2579679;55;20135;-69
2021/09/30 05:49:24;;;;;;;19.35;10.10;;;;;;;5.29;100.00;103288.25;2577082;55;20109;-68
2021/09/30 05:51:52;;;;;;;24.27;11.00;;;;;;;5.29;100.00;103291.81;2580243;55;20109;-64
2021/09/30 05:54:23;;;;;;;19.67;9.82;;;;;;;5.32;100.00;103292.66;2581469;55;20127;-65
2021/09/30 05:56:51;;;;;;;22.70;9.82;;;;;;;5.31;100.00;103278.56;2580838;55;20141;-65
2021/09/30 05:59:21;;;;;;;18.10;9.80;;;;;;;5.43;100.00;103282.81;2581776;55;20147;-65
2021/09/30 06:10:28;;;;;;;15.20;8.15;;;;;;;6.47;100.00;103284.00;2550352;56;20499;-65
2021/09/30 06:12:59;;;;;;;13.43;7.75;;;;;;;6.70;100.00;103280.06;2569377;55;20129;-66
2021/09/30 06:15:30;;;;;;;17.48;9.57;;;;;;;6.92;100.00;103277.03;2577152;55;20133;-67
2021/09/30 06:18:01;;;;;;;17.67;8.77;;;;;;;7.20;100.00;103276.47;2576082;55;20124;-66
2021/09/30 06:20:30;;;;;;;14.27;8.00;;;;;;;7.37;100.00;103271.72;2571100;55;20125;-66
2021/09/30 06:22:58;;;;;;;16.33;9.82;;;;;;;7.56;100.00;103279.28;2576333;55;20135;-67
2021/09/30 06:25:27;;;;;;;13.48;7.60;;;;;;;7.67;100.00;103279.09;2577182;55;20113;-66
2021/09/30 06:27:56;;;;;;;16.37;8.88;;;;;;;7.69;100.00;103274.59;2577106;55;20495;-67
2021/09/30 06:30:29;;;;;;;15.38;9.52;;;;;;;7.79;100.00;103278.81;2577056;55;20123;-67
2021/09/30 06:32:59;;;;;;;13.07;9.10;;;;;;;7.97;99.94;103284.63;2576230;55;20473;-67
2021/09/30 06:35:29;;;;;;;13.05;8.93;;;;;;;8.06;99.76;103286.16;2575543;55;20128;-67
2021/09/30 06:37:58;;;;;;;16.10;8.77;;;;;;;8.14;99.57;103286.88;2575224;55;20140;-67
2021/09/30 06:40:26;;;;;;;14.23;9.05;;;;;;;8.21;97.20;103277.81;2574992;55;20125;-67
2021/09/30 06:42:54;;;;;;;17.73;10.90;;;;;;;8.22;96.22;103278.69;2575397;55;20126;-67
2021/09/30 06:45:29;;;;;;;16.35;9.82;;;;;;;8.44;97.58;103280.81;2575414;55;20140;-67
2021/09/30 06:48:05;;;;;;;17.67;9.82;;;;;;;8.60;94.00;103284.88;2575380;55;20121;-67
2021/09/30 06:50:44;;;;;;;18.15;10.13;;;;;;;8.71;93.38;103279.25;2577236;55;20110;-67
2021/09/30 06:53:14;;;;;;;18.05;10.43;;;;;;;8.80;92.85;103277.28;2576742;55;20667;-67
2021/09/30 06:55:45;;;;;;;16.75;10.50;;;;;;;8.96;90.42;103273.28;2577526;55;20139;-67
2021/09/30 06:58:14;;;;;;;15.95;9.15;;;;;;;9.14;89.25;103261.25;2576898;55;20646;-67
2021/09/30 07:00:46;;;;;;;16.27;9.18;;;;;;;9.25;86.78;103271.59;2577093;55;20109;-67
2021/09/30 07:03:23;;;;;;;14.85;9.15;;;;;;;9.35;86.78;103274.00;2577019;55;20185;-67
2021/09/30 07:05:55;;;;;;;16.58;10.23;;;;;;;9.43;88.20;103272.00;2576981;55;20620;-67
2021/09/30 07:08:23;;;;;;;15.82;9.45;;;;;;;9.48;86.35;103275.38;2576876;55;20515;-67
2021/09/30 07:10:51;;;;;;;15.95;9.23;;;;;;;9.59;90.10;103270.59;2577335;55;20121;-66
2021/09/30 07:13:19;;;;;;;15.80;9.45;;;;;;;9.71;86.24;103281.78;2577813;55;20132;-67
2021/09/30 07:15:46;;;;;;;16.50;10.95;;;;;;;9.98;85.60;103284.53;2577759;55;20121;-66
2021/09/30 07:18:18;;;;;;;15.23;9.90;;;;;;;10.14;85.82;103279.59;2577858;55;20125;-67
2021/09/30 07:20:47;;;;;;;16.25;9.65;;;;;;;10.16;84.17;103275.94;2578096;55;20139;-66
2021/09/30 07:23:15;;;;;;;14.23;9.30;;;;;;;10.33;83.46;103278.97;2577849;55;20649;-67
2021/09/30 07:25:43;;;;;;;15.23;8.95;;;;;;;10.27;82.21;103283.63;2577526;55;20538;-67
2021/09/30 07:28:11;;;;;;;13.27;8.95;;;;;;;10.26;80.24;103289.00;2577723;55;20629;-67
2021/09/30 07:30:39;;;;;;;11.52;7.82;;;;;;;10.20;79.39;103278.50;2577758;55;20125;-67
2021/09/30 07:33:09;;;;;;;16.02;8.70;;;;;;;10.36;80.90;103281.53;2577790;55;20131;-67
2021/09/30 07:35:37;;;;;;;14.07;8.50;;;;;;;10.36;81.72;103279.75;2578040;55;20128;-67
2021/09/30 07:38:06;;;;;;;12.88;7.78;;;;;;;10.40;78.74;103283.19;2577559;55;20134;-67
2021/09/30 07:40:34;;;;;;;10.90;6.62;;;;;;;10.44;77.71;103277.75;2577711;55;20125;-67
2021/09/30 07:43:02;;;;;;;9.23;7.50;;;;;;;10.27;75.90;103274.72;2578169;55;20106;-67
2021/09/30 07:45:30;;;;;;;13.65;8.50;;;;;;;10.28;78.18;103281.78;2577745;55;20126;-67
2021/09/30 07:47:58;;;;;;;11.48;7.68;;;;;;;10.44;77.37;103276.84;2577573;55;20142;-67
2021/09/30 07:50:26;;;;;;;10.60;7.45;;;;;;;10.59;78.27;103280.78;2577664;55;20124;-67
2021/09/30 07:52:53;;;;;;;13.52;7.07;;;;;;;10.63;76.52;103268.22;2577774;55;20105;-67
2021/09/30 07:55:22;;;;;;;11.40;6.30;;;;;;;10.77;76.03;103270.41;2577549;55;20492;-67
2021/09/30 07:57:50;;;;;;;10.85;6.37;;;;;;;10.82;72.55;103268.44;2577625;55;20116;-67
2021/09/30 08:00:18;;;;;;;12.05;6.72;;;;;;;10.87;76.06;103271.81;2577815;55;20135;-67
2021/09/30 08:02:46;;;;;;;10.23;7.15;;;;;;;10.96;72.06;103274.16;2577433;55;20131;-67
2021/09/30 08:05:14;;;;;;;7.55;5.85;;;;;;;10.95;72.48;103267.09;2577919;55;20109;-67
2021/09/30 08:07:43;;;;;;;7.07;5.40;;;;;;;10.89;70.60;103269.09;2577702;55;20546;-67
2021/09/30 08:10:11;;;;;;;8.13;5.70;;;;;;;10.99;70.37;103273.19;2572696;55;20151;-67
2021/09/30 08:12:40;;;;;;;7.45;5.97;;;;;;;11.14;72.56;103277.09;2577690;55;20125;-67
2021/09/30 08:15:09;;;;;;;10.25;5.37;;;;;;;11.33;69.93;103265.72;2577493;55;20125;-67
2021/09/30 08:17:37;;;;;;;10.13;5.55;;;;;;;11.25;70.54;103272.22;2577617;55;20139;-67
2021/09/30 08:20:06;;;;;;;10.15;6.53;;;;;;;11.37;70.73;103264.66;2577934;55;20120;-67
2021/09/30 08:22:34;;;;;;;8.38;6.03;;;;;;;11.66;70.55;103268.88;2577378;55;20121;-67
2021/09/30 08:25:02;;;;;;;8.52;5.80;;;;;;;11.69;65.36;103270.56;2577794;55;20606;-68
2021/09/30 08:27:29;;;;;;;6.93;5.53;;;;;;;11.61;64.64;103267.31;2577434;55;20170;-67
2021/09/30 08:29:58;;;;;;;6.47;4.60;;;;;;;11.59;64.56;103274.53;2577678;55;20519;-67
2021/09/30 08:32:26;;;;;;;9.18;4.75;;;;;;;11.45;65.83;103270.59;2577774;55;20114;-67
2021/09/30 08:34:54;;;;;;;6.78;4.40;;;;;;;11.60;64.70;103270.94;2577664;55;20113;-67
2021/09/30 08:37:22;;;;;;;8.05;4.37;;;;;;;11.73;65.76;103266.87;2577459;55;20125;-67
2021/09/30 08:39:50;;;;;;;7.85;5.15;;;;;;;11.61;65.65;103267.31;2577802;55;20101;-67
2021/09/30 08:42:18;;;;;;;4.90;4.12;;;;;;;11.36;65.09;103255.75;2577605;55;20148;-67
2021/09/30 08:44:46;;;;;;;8.27;4.47;;;;;;;11.26;65.16;103263.28;2577508;55;20129;-67
2021/09/30 08:47:15;;;;;;;6.32;4.37;;;;;;;11.26;63.01;103260.59;2577580;55;20121;-67
2021/09/30 08:49:43;;;;;;;5.18;3.80;;;;;;;11.44;63.58;103257.28;2577554;55;20163;-67
2021/09/30 08:52:11;;;;;;;6.00;4.05;;;;;;;11.52;64.72;103261.41;2577366;55;20114;-67
2021/09/30 08:54:38;;;;;;;4.53;3.45;;;;;;;11.71;62.04;103258.00;2577721;55;20120;-67
2021/09/30 08:57:07;;;;;;;4.10;3.17;;;;;;;11.83;64.04;103260.22;2577501;55;20132;-67
2021/09/30 08:59:36;;;;;;;5.97;3.70;;;;;;;11.80;61.37;103264.81;2577666;55;20117;-67
2021/09/30 09:02:07;;;;;;;6.07;4.00;;;;;;;11.43;62.04;103258.22;2572391;55;20631;-67
2021/09/30 09:04:36;;;;;;;6.43;3.90;;;;;;;11.09;62.66;103268.38;2577263;55;20123;-67
2021/09/30 09:07:08;;;;;;;8.60;5.20;;;;;;;11.12;63.64;103244.19;2577411;55;20634;-67
2021/09/30 09:09:36;;;;;;;8.52;3.70;;;;;;;11.30;61.69;103261.38;2577629;55;20124;-67
2021/09/30 09:12:07;;;;;;;9.90;3.80;;;;;;;11.50;62.25;103257.91;2577315;55;20133;-67
2021/09/30 09:14:37;;;;;;;8.27;3.42;;;;;;;11.77;62.64;103255.09;2577458;55;20118;-67
2021/09/30 09:17:07;;;;;;;6.17;3.53;;;;;;;11.92;60.25;103252.72;2577405;55;20121;-67
2021/09/30 09:19:39;;;;;;;6.10;4.30;;;;;;;12.21;59.02;103253.37;2577532;55;20615;-67
2021/09/30 09:22:12;;;;;;;14.02;4.47;;;;;;;12.16;59.13;103245.53;2577799;55;20104;-67
2021/09/30 09:25:08;;;;;;;6.32;4.47;;;;;;;12.27;60.11;103253.13;2577332;55;20109;-67
2021/09/30 09:27:48;;;;;;;6.07;4.20;;;;;;;12.34;61.04;103251.03;2577386;55;20122;-67
2021/09/30 09:30:38;;;;;;;4.75;3.50;;;;;;;12.62;61.23;103257.91;2577539;55;20121;-67
2021/09/30 09:33:12;;;;;;;4.75;3.42;;;;;;;12.59;57.38;103258.03;2577375;55;20641;-67
2021/09/30 09:35:57;;;;;;;4.05;2.97;;;;;;;12.69;57.29;103254.03;2577590;55;20135;-67
2021/09/30 09:38:28;;;;;;;5.57;3.58;;;;;;;12.03;57.42;103255.00;2577214;55;20685;-67
2021/09/30 09:40:58;;;;;;;5.93;3.53;;;;;;;11.55;59.08;103255.94;2577699;55;20132;-67
2021/09/30 09:43:31;;;;;;;8.15;3.92;;;;;;;11.23;62.25;103244.69;2577510;55;20117;-67
2021/09/30 09:46:00;;;;;;;4.78;3.97;;;;;;;10.98;62.33;103245.59;2577116;55;20132;-68
2021/09/30 09:48:31;;;;;;;29.80;5.03;;;;;;;10.97;63.29;103243.84;2577092;55;20127;-67
2021/09/30 09:51:04;;;;;;;5.35;3.83;;;;;;;11.17;64.58;103252.94;2577890;55;20125;-68
2021/09/30 09:53:34;;;;;;;4.87;3.25;;;;;;;11.61;62.79;103241.47;2577122;55;20178;-67
2021/09/30 09:56:16;;;;;;;6.32;3.50;;;;;;;11.88;61.16;103235.06;2577560;55;20649;-67
2021/09/30 09:58:50;;;;;;;4.93;3.75;;;;;;;11.91;58.44;103229.59;2577614;55;20124;-67
2021/09/30 10:01:22;;;;;;;5.65;3.65;;;;;;;11.90;59.86;103230.53;2576623;55;20662;-68
2021/09/30 10:03:53;;;;;;;6.70;4.25;;;;;;;12.29;62.74;103220.94;2577766;55;20120;-67
2021/09/30 10:06:22;;;;;;;11.35;4.12;;;;;;;12.66;56.97;103222.00;2577442;55;20144;-67
2021/09/30 10:08:51;;;;;;;5.28;4.28;;;;;;;12.78;56.56;103217.91;2577147;55;20175;-68
2021/09/30 10:11:19;;;;;;;4.85;3.90;;;;;;;12.62;54.75;103217.72;2577381;55;20141;-67
2021/09/30 10:13:47;;;;;;;4.47;3.70;;;;;;;12.81;60.39;103215.09;2577144;55;20114;-67
2021/09/30 10:16:24;;;;;;;5.45;3.92;;;;;;;12.76;57.23;103211.75;2571863;55;20113;-67
2021/09/30 10:18:55;;;;;;;20.10;4.40;;;;;;;12.53;58.56;103201.12;2577534;55;20531;-67
2021/09/30 10:21:25;;;;;;;7.50;3.67;;;;;;;12.45;58.16;103213.13;2571707;55;20109;-67
2021/09/30 10:23:57;;;;;;;7.10;3.50;;;;;;;12.22;59.66;103222.97;2577237;55;20127;-67
2021/09/30 10:26:35;;;;;;;8.95;3.50;;;;;;;12.18;60.85;103211.56;2576998;55;20135;-67
2021/09/30 10:29:02;;;;;;;6.90;3.37;;;;;;;11.88;60.09;103208.31;2577269;55;20113;-67
2021/09/30 10:31:34;;;;;;;7.20;4.05;;;;;;;11.82;62.95;103204.97;2577243;55;20117;-67
2021/09/30 10:34:04;;;;;;;5.62;3.67;;;;;;;12.16;58.87;103201.84;2577462;55;20123;-67
2021/09/30 10:36:44;;;;;;;5.78;3.78;;;;;;;12.36;64.25;103199.19;2576913;55;20125;-67
2021/09/30 10:39:17;;;;;;;3.78;2.90;;;;;;;12.33;60.28;103202.00;2577489;55;20619;-67
2021/09/30 10:41:45;;;;;;;5.93;3.60;;;;;;;12.29;62.83;103200.38;2577027;55;20535;-67
2021/09/30 10:44:15;;;;;;;5.00;3.00;;;;;;;12.33;64.41;103193.09;2577031;55;20125;-67
2021/09/30 10:46:51;;;;;;;3.80;3.00;;;;;;;12.58;63.17;103181.31;2577658;55;20168;-67
2021/09/30 10:49:42;;;;;;;7.22;3.30;;;;;;;12.91;62.36;103188.75;2577761;55;20612;-67
2021/09/30 10:52:20;;;;;;;3.50;3.20;;;;;;;12.74;59.34;103182.34;2577923;55;20117;-67
2021/09/30 10:54:51;;;;;;;4.53;3.20;;;;;;;12.59;60.44;103191.94;2578189;55;20504;-67
2021/09/30 10:57:39;;;;;;;7.53;3.43;;;;;;;13.14;60.30;103197.53;2578015;55;20545;-67
2021/09/30 11:00:13;;;;;;;6.70;3.70;;;;;;;13.44;57.95;103197.03;2577855;55;20647;-67
2021/09/30 11:03:12;;;;;;;5.68;3.62;;;;;;;13.25;58.22;103186.31;2577931;55;20129;-67
2021/09/30 11:05:43;;;;;;;6.32;3.17;;;;;;;12.88;57.51;103184.41;2578095;55;20603;-67
2021/09/30 11:08:33;;;;;;;5.82;3.67;;;;;;;12.51;60.32;103186.06;2577919;55;20121;-67
2021/09/30 11:11:16;;;;;;;6.68;3.37;;;;;;;12.02;60.89;103179.22;2577875;55;20124;-67
2021/09/30 11:13:46;;;;;;;5.93;2.85;;;;;;;11.62;62.94;103180.81;2578088;55;20124;-67
2021/09/30 11:16:16;;;;;;;4.95;3.53;;;;;;;11.50;62.85;103182.22;2577756;55;20109;-67
2021/09/30 11:18:51;;;;;;;4.43;3.58;;;;;;;11.47;64.54;103172.50;2577931;55;20641;-67
2021/09/30 11:21:44;;;;;;;8.63;3.30;;;;;;;11.58;65.19;103182.78;2577905;55;20109;-67
2021/09/30 11:24:29;;;;;;;3.97;2.83;;;;;;;11.52;63.79;103173.19;2577581;55;20139;-67
2021/09/30 11:27:15;;;;;;;3.87;3.05;;;;;;;11.33;64.89;103164.16;2577794;55;20121;-67
2021/09/30 11:29:43;;;;;;;6.15;3.45;;;;;;;11.09;66.03;103162.37;2578154;55;20121;-67
2021/09/30 11:32:27;;;;;;;7.85;3.78;;;;;;;11.12;65.42;103161.38;2577617;55;20121;-67
2021/09/30 11:35:00;;;;;;;4.60;3.33;;;;;;;11.21;67.49;103161.03;2578076;55;20637;-67
2021/09/30 11:37:36;;;;;;;5.72;3.03;;;;;;;11.54;64.01;103152.63;2577758;55;20128;-67
2021/09/30 11:40:12;;;;;;;4.43;3.70;;;;;;;11.77;62.80;103163.28;2577800;55;20173;-67
2021/09/30 11:42:43;;;;;;;5.37;3.40;;;;;;;12.38;62.79;103148.28;2577830;55;20521;-67
2021/09/30 11:45:14;;;;;;;4.78;3.28;;;;;;;12.94;61.93;103140.38;2577953;55;20147;-68
2021/09/30 11:47:43;;;;;;;8.05;3.28;;;;;;;13.12;59.08;103149.34;2577417;55;20500;-67
2021/09/30 11:50:24;;;;;;;5.68;3.58;;;;;;;13.20;58.92;103154.38;2577814;55;20132;-68
2021/09/30 11:53:05;;;;;;;4.95;2.87;;;;;;;13.09;59.09;103160.22;2577961;55;20121;-67
2021/09/30 11:55:40;;;;;;;4.10;3.20;;;;;;;13.04;58.16;103154.25;2577740;55;20147;-67
2021/09/30 11:58:12;;;;;;;5.32;4.12;;;;;;;12.79;59.89;103155.34;2577595;55;20116;-67
2021/09/30 12:00:43;;;;;;;3.70;3.03;;;;;;;12.20;61.33;103147.25;2577884;55;20129;-67
2021/09/30 12:03:11;;;;;;;5.30;3.62;;;;;;;11.95;63.27;103150.97;2577922;55;20179;-67
2021/09/30 12:05:40;;;;;;;4.45;3.47;;;;;;;11.60;63.73;103155.94;2577887;55;20136;-68
2021/09/30 12:08:09;;;;;;;4.57;3.28;;;;;;;11.26;66.11;103158.16;2577810;55;20121;-67
2021/09/30 12:10:40;;;;;;;4.28;3.72;;;;;;;11.00;67.12;103147.56;2577475;55;20133;-67
2021/09/30 12:13:16;;;;;;;5.12;3.95;;;;;;;10.83;69.09;103117.97;2577858;55;20121;-67
2021/09/30 12:15:45;;;;;;;5.70;3.70;;;;;;;10.92;67.90;103140.78;2577738;55;20527;-67
2021/09/30 12:18:24;;;;;;;4.05;3.22;;;;;;;11.01;68.23;103135.09;2577519;55;20131;-67
2021/09/30 12:20:55;;;;;;;8.07;4.00;;;;;;;10.96;69.61;103140.59;2577669;55;20121;-67
2021/09/30 12:23:23;;;;;;;6.63;4.27;;;;;;;10.97;69.13;103139.69;2577856;55;20109;-67
2021/09/30 12:25:53;;;;;;;10.45;4.93;;;;;;;11.05;69.61;103138.53;2577252;55;20248;-67
2021/09/30 12:28:21;;;;;;;10.35;4.82;;;;;;;11.02;70.77;103128.81;2577803;55;20114;-67
2021/09/30 12:30:48;;;;;;;9.60;4.30;;;;;;;10.93;70.60;103134.50;2577564;55;20143;-67
2021/09/30 12:33:16;;;;;;;9.18;5.12;;;;;;;10.84;70.43;103130.41;2577485;55;20113;-67
2021/09/30 12:35:44;;;;;;;5.95;4.15;;;;;;;10.91;70.15;103134.56;2577785;55;20462;-67
2021/09/30 12:38:14;;;;;;;7.12;4.12;;;;;;;10.77;71.09;103129.78;2577308;55;20538;-68
2021/09/30 12:40:45;;;;;;;6.80;4.32;;;;;;;10.58;72.61;103122.44;2572665;55;20133;-67
2021/09/30 12:43:15;;;;;;;19.55;7.50;;;;;;;10.54;72.41;103130.63;2577615;55;20619;-67
2021/09/30 12:45:46;;;;;;;5.78;4.03;;;;;;;10.44;74.00;103117.59;2577767;55;20117;-67
2021/09/30 12:48:16;;;;;;;6.85;4.07;;;;;;;10.47;71.43;103110.41;2577423;55;20531;-67
2021/09/30 12:50:47;;;;;;;4.55;3.85;;;;;;;10.53;72.85;103115.53;2577676;55;20109;-67
2021/09/30 12:53:17;;;;;;;5.43;3.60;;;;;;;10.52;70.76;103114.66;2577564;55;20114;-67
2021/09/30 12:55:46;;;;;;;15.88;5.82;;;;;;;10.38;71.93;103107.09;2577812;55;20122;-67
2021/09/30 12:58:33;;;;;;;9.27;4.37;;;;;;;10.43;73.65;103110.53;2577229;55;20136;-67
2021/09/30 13:01:21;;;;;;;4.30;3.67;;;;;;;10.44;74.55;103104.25;2577429;55;20123;-67
2021/09/30 13:04:10;;;;;;;7.75;3.80;;;;;;;10.50;72.95;103104.94;2577876;55;20135;-67
2021/09/30 13:06:40;;;;;;;10.40;3.70;;;;;;;10.25;74.67;103096.00;2577506;55;20135;-67
2021/09/30 13:09:20;;;;;;;9.18;4.22;;;;;;;10.25;73.49;103079.12;2577043;55;20105;-67
2021/09/30 13:11:55;;;;;;;6.87;4.43;;;;;;;10.20;75.56;103091.75;2577447;55;20105;-67
2021/09/30 13:14:28;;;;;;;8.55;3.65;;;;;;;10.19;76.13;103090.00;2577502;55;20114;-67
2021/09/30 13:17:13;;;;;;;8.35;4.10;;;;;;;10.19;76.75;103092.69;2577475;55;20123;-67
2021/09/30 13:19:44;;;;;;;5.68;3.90;;;;;;;10.14;74.24;103083.06;2576927;55;20121;-67
2021/09/30 13:22:14;;;;;;;10.38;4.37;;;;;;;10.13;76.02;103084.00;2577011;55;20133;-67
2021/09/30 13:24:43;;;;;;;12.93;4.47;;;;;;;10.09;75.79;103073.47;2577791;55;20110;-67
2021/09/30 13:27:14;;;;;;;8.68;4.78;;;;;;;10.07;77.51;103070.84;2577347;55;20128;-67
2021/09/30 13:29:46;;;;;;;11.20;5.00;;;;;;;10.14;76.51;103072.38;2577655;55;20885;-67
2021/09/30 13:32:14;;;;;;;;;;;;;;;10.36;76.20;103068.94;2577886;55;20160;-67
2021/09/30 13:34:42;;;;;;;8.02;4.35;;;;;;;10.11;77.91;103061.81;2577600;55;20005;-67
2021/09/30 13:37:10;;;;;;;7.78;4.75;;;;;;;10.01;79.44;103065.72;2577119;55;20674;-67
2021/09/30 13:39:39;;;;;;;9.68;5.62;;;;;;;9.92;80.43;103058.94;2577639;55;20127;-67
2021/09/30 13:42:08;;;;;;;7.93;4.50;;;;;;;10.00;79.90;103061.31;2577308;55;20122;-67
2021/09/30 13:44:36;;;;;;;8.70;5.05;;;;;;;9.99;80.86;103062.25;2577054;55;20182;-67
2021/09/30 13:47:05;;;;;;;8.63;4.60;;;;;;;9.96;80.79;103059.72;2577195;55;20123;-67
2021/09/30 13:49:34;;;;;;;7.93;5.32;;;;;;;9.87;81.98;103055.53;2577448;55;20515;-67
2021/09/30 13:52:01;;;;;;;5.22;4.28;;;;;;;9.88;81.13;103052.84;2577222;55;20130;-67
2021/09/30 13:54:29;;;;;;;6.35;4.75;;;;;;;9.87;81.18;103053.75;2577534;55;20115;-67
2021/09/30 13:56:57;;;;;;;6.00;4.15;;;;;;;9.88;80.56;103055.50;2577116;55;20109;-67
2021/09/30 13:59:24;;;;;;;6.10;4.97;;;;;;;9.76;81.61;103047.94;2577316;55;20125;-67
2021/09/30 14:01:52;;;;;;;7.15;4.87;;;;;;;9.71;82.44;103057.88;2577417;55;20129;-67